createdAt,value
2019-05-01T12:12:04.043Z,86.40
2019-05-01T12:15:56.538Z,84.22
2019-05-01T12:18:26.411Z,83.85
2019-05-01T12:20:56.750Z,88.13
2019-05-01T12:23:26.639Z,90.22
2019-05-01T12:25:56.757Z,85.60
2019-05-01T12:28:26.467Z,81.08
2019-05-01T12:30:56.385Z,83.03
2019-05-01T12:33:26.297Z,86.03
2019-05-01T12:35:58.264Z,81.70
2019-05-01T12:38:29.453Z,85.72
2019-05-01T12:41:17.371Z,81.08
2019-05-01T12:43:47.249Z,85.20
2019-05-01T12:46:35.305Z,79.50
2019-05-01T12:49:05.601Z,82.20
2019-05-01T12:51:36.125Z,78.62
2019-05-01T12:54:23.870Z,89.20
2019-05-01T12:57:03.240Z,84.95
2019-05-01T12:59:33.033Z,81.97
2019-05-01T13:02:02.969Z,85.85
2019-05-01T13:04:32.842Z,76.50
2019-05-01T13:07:03.156Z,81.33
2019-05-01T13:09:33.160Z,76.37
2019-05-01T13:12:03.097Z,77.50
2019-05-01T13:14:32.633Z,78.70
2019-05-01T13:17:02.477Z,78.57
2019-05-01T13:19:32.415Z,80.17
2019-05-01T13:22:05.279Z,75.12
2019-05-01T13:24:35.842Z,78.15
2019-05-01T13:27:09.929Z,77.50
2019-05-01T13:29:44.097Z,75.22
2019-05-01T13:32:27.813Z,73.62
2019-05-01T13:34:57.639Z,72.15
2019-05-01T13:37:27.165Z,79.62
2019-05-01T13:39:57.096Z,69.15
2019-05-01T13:42:26.962Z,76.83
2019-05-01T13:44:56.510Z,78.03
2019-05-01T13:47:26.426Z,75.03
2019-05-01T13:49:56.299Z,80.43
2019-05-01T13:52:25.847Z,69.83
2019-05-01T13:54:56.029Z,73.20
2019-05-01T13:57:25.764Z,77.87
2019-05-01T13:59:55.786Z,73.75
2019-05-01T14:02:25.604Z,70.57
2019-05-01T14:04:56.314Z,72.78
2019-05-01T14:07:27.095Z,72.37
2019-05-01T14:12:25.554Z,74.17
2019-05-01T14:14:55.125Z,71.77
2019-05-01T14:17:25.046Z,69.90
2019-05-01T14:20:05.460Z,70.37
2019-05-01T14:22:51.729Z,70.32
2019-05-01T14:25:22.085Z,70.97
2019-05-01T14:27:52.161Z,77.78
2019-05-01T14:30:22.216Z,70.05
2019-05-01T14:32:52.009Z,71.80
2019-05-01T14:35:21.974Z,70.50
2019-05-01T14:37:51.827Z,68.90
2019-05-01T14:40:21.834Z,73.13
2019-05-01T14:42:52.089Z,68.90
2019-05-01T14:45:23.312Z,66.40
2019-05-01T14:47:54.016Z,64.07
2019-05-01T14:50:23.926Z,71.60
2019-05-01T14:52:53.755Z,67.85
2019-05-01T14:55:23.673Z,64.63
2019-05-01T14:57:53.585Z,67.97
2019-05-01T15:00:23.762Z,67.63
2019-05-01T15:02:53.426Z,70.30
2019-05-01T15:05:23.354Z,65.87
2019-05-01T15:07:53.249Z,71.22
2019-05-01T15:10:23.161Z,64.93
2019-05-01T15:12:54.767Z,69.70
2019-05-01T15:15:35.086Z,66.92
2019-05-01T15:18:22.998Z,69.97
2019-05-01T15:20:52.798Z,66.53
2019-05-01T15:23:22.642Z,64.42
2019-05-01T15:25:52.583Z,70.05
2019-05-01T15:28:22.481Z,71.23
2019-05-01T15:30:52.785Z,75.17
2019-05-01T15:33:22.690Z,78.65
2019-05-01T15:35:52.253Z,70.40
2019-05-01T15:38:22.141Z,68.40
2019-05-01T15:40:59.795Z,68.33
2019-05-01T15:43:30.716Z,68.72
2019-05-01T15:46:00.471Z,67.22
2019-05-01T15:48:30.365Z,71.47
2019-05-01T15:50:59.917Z,76.50
2019-05-01T15:53:29.772Z,70.90
2019-05-01T15:55:59.324Z,70.25
2019-05-01T15:58:29.212Z,73.12
2019-05-01T16:00:58.747Z,71.27
2019-05-01T16:03:28.745Z,71.60
2019-05-01T16:05:58.645Z,70.07
2019-05-01T16:08:29.114Z,72.65
2019-05-01T16:11:03.507Z,70.37
2019-05-01T16:13:35.374Z,70.87
2019-05-01T16:16:05.285Z,72.97
2019-05-01T16:18:35.198Z,76.43
2019-05-01T16:21:05.229Z,69.37
2019-05-01T16:23:35.030Z,74.55
2019-05-01T16:26:05.050Z,65.92
2019-05-01T16:28:34.972Z,76.40
2019-05-01T16:31:05.497Z,76.03
2019-05-01T16:33:35.226Z,73.78
2019-05-01T16:36:05.074Z,76.35
2019-05-01T16:38:39.290Z,74.73
2019-05-01T16:41:10.809Z,76.95
2019-05-01T16:43:40.949Z,72.95
2019-05-01T16:46:10.807Z,67.55
2019-05-01T16:48:40.727Z,71.57
2019-05-01T16:51:10.728Z,70.43
2019-05-01T16:53:40.641Z,74.22
2019-05-01T16:56:10.795Z,71.77
2019-05-01T16:58:40.973Z,80.65
2019-05-01T17:01:12.573Z,72.15
2019-05-01T17:03:44.339Z,75.72
2019-05-01T17:06:24.689Z,72.35
2019-05-01T17:08:56.031Z,71.87
2019-05-01T17:11:30.884Z,76.12
2019-05-01T17:14:00.829Z,71.60
2019-05-01T17:16:30.809Z,71.40
2019-05-01T17:19:00.365Z,73.73
2019-05-01T17:21:30.094Z,72.62
2019-05-01T17:24:00.252Z,66.20
2019-05-01T17:26:30.441Z,67.45
2019-05-01T17:29:00.303Z,71.42
2019-05-01T17:31:30.217Z,70.78
2019-05-01T17:34:00.117Z,69.30
2019-05-01T17:36:29.981Z,69.60
2019-05-01T17:38:59.902Z,67.40
2019-05-01T17:41:30.234Z,70.95
2019-05-01T17:43:59.825Z,72.90
2019-05-01T17:46:29.837Z,70.15
2019-05-01T17:49:03.945Z,74.47
2019-05-01T17:51:31.272Z,63.98
2019-05-01T17:54:01.003Z,71.87
2019-05-01T17:56:30.660Z,76.72
2019-05-01T17:59:00.437Z,67.58
2019-05-01T18:01:48.193Z,70.35
2019-05-01T18:04:25.799Z,78.70
2019-05-01T18:06:55.605Z,70.20
2019-05-01T18:09:25.590Z,68.83
2019-05-01T18:11:55.521Z,67.50
2019-05-01T18:14:25.415Z,74.30
2019-05-01T18:17:03.400Z,70.27
2019-05-01T18:19:32.979Z,71.57
2019-05-01T18:22:16.690Z,71.82
2019-05-01T18:25:06.374Z,71.50
2019-05-01T18:27:54.438Z,73.33
2019-05-01T18:30:27.194Z,73.55
2019-05-01T18:32:57.272Z,75.78
2019-05-01T18:35:27.008Z,69.50
2019-05-01T18:37:58.567Z,73.72
2019-05-01T18:40:45.225Z,71.42
2019-05-01T18:43:15.289Z,78.72
2019-05-01T18:45:47.865Z,74.60
2019-05-01T18:48:17.959Z,73.75
2019-05-01T18:50:49.597Z,76.47
2019-05-01T18:53:20.676Z,73.20
2019-05-01T18:58:19.115Z,81.05
2019-05-01T19:00:49.314Z,83.07
2019-05-01T19:03:19.006Z,81.57
2019-05-01T19:05:48.909Z,81.90
2019-05-01T19:08:18.962Z,89.67
2019-05-01T19:10:48.737Z,89.30
2019-05-01T19:13:18.732Z,90.72
2019-05-01T19:15:48.587Z,87.90
2019-05-01T19:18:18.614Z,84.28
2019-05-01T19:20:58.972Z,86.90
2019-05-01T19:23:22.177Z,95.12
2019-05-01T19:25:51.159Z,86.47
2019-05-01T19:28:21.349Z,87.10
2019-05-01T19:30:50.901Z,96.45
2019-05-01T19:33:20.920Z,91.95
2019-05-01T19:35:50.822Z,96.57
2019-05-01T19:38:21.632Z,94.40
2019-05-01T19:43:20.158Z,93.58
2019-05-01T19:45:50.061Z,93.95
2019-05-01T19:48:19.915Z,100.60
2019-05-01T19:50:49.649Z,99.90
2019-05-01T19:53:19.770Z,95.75
2019-05-01T19:55:49.676Z,96.47
2019-05-01T19:58:19.646Z,94.40
2019-05-01T20:00:53.072Z,98.50
2019-05-01T20:03:23.167Z,99.70
2019-05-01T20:05:53.112Z,93.37
2019-05-01T20:08:23.011Z,105.60
2019-05-01T20:10:52.820Z,100.30
2019-05-01T20:13:22.461Z,96.12
2019-05-01T20:15:52.442Z,101.82
2019-05-01T20:18:22.425Z,96.60
2019-05-01T20:20:52.079Z,94.83
2019-05-01T20:23:26.059Z,102.82
2019-05-01T20:25:55.952Z,100.22
2019-05-01T20:28:25.203Z,95.47
2019-05-01T20:30:55.157Z,103.45
2019-05-01T20:33:25.433Z,93.90
2019-05-01T20:35:55.361Z,105.67
2019-05-01T20:38:25.273Z,110.70
2019-05-01T20:40:55.189Z,106.83
2019-05-01T20:43:25.114Z,102.58
2019-05-01T20:45:55.156Z,101.43
2019-05-01T20:48:25.433Z,100.37
2019-05-01T20:50:55.367Z,103.27
2019-05-01T20:53:25.212Z,106.78
2019-05-01T20:55:56.734Z,104.70
2019-05-01T20:58:26.630Z,105.63
2019-05-01T21:00:58.309Z,109.37
2019-05-01T21:03:28.106Z,98.33
2019-05-01T21:06:16.300Z,102.32
2019-05-01T21:08:50.084Z,103.58
2019-05-01T21:11:27.781Z,107.03
2019-05-01T21:14:15.143Z,97.82
2019-05-01T21:16:32.928Z,102.72
2019-05-01T21:19:00.416Z,103.47
2019-05-01T21:21:30.312Z,103.78
2019-05-01T21:24:00.220Z,103.90
2019-05-01T21:26:30.105Z,112.25
2019-05-01T21:29:00.007Z,102.78
2019-05-01T21:31:29.941Z,103.42
2019-05-01T21:33:59.820Z,110.30
2019-05-01T21:36:29.773Z,108.42
2019-05-01T21:38:59.650Z,73.97
2019-05-01T21:41:29.186Z,102.90
2019-05-01T21:43:59.077Z,101.20
2019-05-01T21:46:28.642Z,108.03
2019-05-01T21:48:58.687Z,106.15
2019-05-01T21:51:28.438Z,106.30
2019-05-01T21:53:58.323Z,98.45
2019-05-01T21:56:27.878Z,99.52
2019-05-01T21:58:59.552Z,101.18
2019-05-01T22:01:30.269Z,101.92
2019-05-01T22:04:01.270Z,104.63
2019-05-01T22:06:30.831Z,103.78
2019-05-01T22:09:00.692Z,106.78
2019-05-01T22:11:32.959Z,109.83
2019-05-01T22:14:02.710Z,98.35
2019-05-01T22:16:32.853Z,103.55
2019-05-01T22:19:13.085Z,112.50
2019-05-01T22:22:00.772Z,101.90
2019-05-01T22:24:33.119Z,104.47
2019-05-01T22:27:05.497Z,102.60
2019-05-01T22:29:39.710Z,106.65
2019-05-01T22:32:11.887Z,106.87
2019-05-01T22:34:46.199Z,110.57
2019-05-01T22:37:16.160Z,107.95
2019-05-01T22:39:47.674Z,114.43
2019-05-01T22:42:17.699Z,110.35
2019-05-01T22:44:47.504Z,117.07
2019-05-01T22:47:17.481Z,110.20
2019-05-01T22:49:47.345Z,112.53
2019-05-01T22:52:17.256Z,113.17
2019-05-01T22:54:48.929Z,119.10
2019-05-01T22:57:20.375Z,112.52
2019-05-01T22:59:50.296Z,120.62
2019-05-01T23:02:34.120Z,115.17
2019-05-01T23:05:06.073Z,115.77
2019-05-01T23:07:35.993Z,115.72
2019-05-01T23:10:07.664Z,129.13
2019-05-01T23:12:37.513Z,120.72
2019-05-01T23:15:10.121Z,121.45
2019-05-01T23:17:46.794Z,115.03
2019-05-01T23:20:17.283Z,122.15
2019-05-01T23:22:47.024Z,124.42
2019-05-01T23:25:16.864Z,127.30
2019-05-01T23:27:46.413Z,124.53
2019-05-01T23:30:18.277Z,128.00
2019-05-01T23:32:47.831Z,125.97
2019-05-01T23:35:17.761Z,130.85
2019-05-01T23:37:47.729Z,123.25
2019-05-01T23:40:17.946Z,131.60
2019-05-01T23:42:52.396Z,121.62
2019-05-01T23:45:19.129Z,126.07
2019-05-01T23:47:49.031Z,129.63
2019-05-01T23:50:18.964Z,125.95
2019-05-01T23:52:48.797Z,128.55
2019-05-01T23:55:18.718Z,132.47
2019-05-01T23:57:48.637Z,127.90
